createdAt,value
2023-02-04T00:00:19.347Z,101099.89
2023-02-04T00:02:46.190Z,101100.64
2023-02-04T00:05:13.775Z,101099.39
2023-02-04T00:07:41.445Z,101105.82
2023-02-04T00:10:09.231Z,101106.19
2023-02-04T00:12:36.219Z,101094.59
2023-02-04T00:15:03.085Z,101095.89
2023-02-04T00:17:29.683Z,101095.14
2023-02-04T00:19:56.265Z,101102.48
2023-02-04T00:22:23.072Z,101106.92
2023-02-04T00:24:50.643Z,101117.50
2023-02-04T00:27:17.716Z,101118.02
2023-02-04T00:29:44.462Z,101112.50
2023-02-04T00:32:11.224Z,101133.97
2023-02-04T00:34:38.047Z,101113.95
2023-02-04T00:37:04.734Z,101128.58
2023-02-04T00:39:31.581Z,101128.27
2023-02-04T00:41:58.595Z,101122.75
2023-02-04T00:44:25.465Z,101129.96
2023-02-04T00:46:52.118Z,101115.14
2023-02-04T00:49:18.725Z,101112.30
2023-02-04T00:51:46.837Z,101115.37
2023-02-04T00:54:16.217Z,101111.64
2023-02-04T00:56:44.232Z,101104.56
2023-02-04T00:59:11.561Z,101111.67
2023-02-04T01:01:38.650Z,101124.02
2023-02-04T01:04:05.866Z,101115.10
2023-02-04T01:06:33.383Z,101114.77
2023-02-04T01:09:01.479Z,101112.48
2023-02-04T01:11:30.839Z,101107.05
2023-02-04T01:13:57.933Z,101104.92
2023-02-04T01:16:25.702Z,101112.47
2023-02-04T01:18:55.811Z,101106.41
2023-02-04T01:21:24.910Z,101100.23
2023-02-04T01:23:52.156Z,101102.75
2023-02-04T01:26:19.962Z,101088.35
2023-02-04T01:28:47.357Z,101084.63
2023-02-04T01:31:15.023Z,101081.30
2023-02-04T01:33:41.928Z,101085.33
2023-02-04T01:36:09.042Z,101103.57
2023-02-04T01:38:35.705Z,101103.55
2023-02-04T01:41:04.196Z,101105.35
2023-02-04T01:43:31.993Z,101098.04
2023-02-04T01:46:00.011Z,101113.65
2023-02-04T01:48:26.904Z,101105.77
2023-02-04T01:51:02.134Z,101102.79
2023-02-04T01:53:28.959Z,101104.98
2023-02-04T01:55:55.691Z,101090.36
2023-02-04T01:58:22.464Z,101084.03
2023-02-04T02:00:49.780Z,101085.68
2023-02-04T02:03:16.583Z,101078.71
2023-02-04T02:05:46.579Z,101077.69
2023-02-04T02:08:14.889Z,101069.87
2023-02-04T02:10:44.799Z,101082.29
2023-02-04T02:13:13.483Z,101078.07
2023-02-04T02:15:40.820Z,101088.04
2023-02-04T02:18:08.816Z,101095.00
2023-02-04T02:20:36.754Z,101085.58
2023-02-04T02:23:23.656Z,101092.55
2023-02-04T02:25:51.507Z,101067.69
2023-02-04T02:28:21.886Z,101065.02
2023-02-04T02:30:49.823Z,101063.54
2023-02-04T02:33:19.813Z,101054.04
2023-02-04T02:35:48.443Z,101046.48
2023-02-04T02:38:17.019Z,101049.45
2023-02-04T02:40:44.155Z,101042.33
2023-02-04T02:43:17.316Z,101038.11
2023-02-04T02:45:44.784Z,101050.29
2023-02-04T02:48:11.831Z,101036.30
2023-02-04T02:50:39.478Z,101046.23
2023-02-04T02:53:14.346Z,101039.87
2023-02-04T02:55:41.632Z,101034.60
2023-02-04T02:58:16.464Z,101041.81
2023-02-04T03:00:44.132Z,101032.88
2023-02-04T03:03:17.752Z,101018.26
2023-02-04T03:05:48.699Z,101014.23
2023-02-04T03:08:17.161Z,101017.83
2023-02-04T03:10:45.210Z,101015.85
2023-02-04T03:13:14.648Z,101018.92
2023-02-04T03:15:44.063Z,101037.08
2023-02-04T03:18:12.203Z,101030.38
2023-02-04T03:20:40.044Z,101026.73
2023-02-04T03:23:06.827Z,101038.82
2023-02-04T03:25:34.251Z,101021.45
2023-02-04T03:28:01.226Z,101021.00
2023-02-04T03:30:28.668Z,101033.48
2023-02-04T03:32:55.997Z,101026.73
2023-02-04T03:35:23.068Z,101014.27
2023-02-04T03:37:50.007Z,101018.64
2023-02-04T03:40:16.861Z,101017.54
2023-02-04T03:42:43.524Z,101017.99
2023-02-04T03:45:10.219Z,101021.22
2023-02-04T03:47:36.872Z,101016.97
2023-02-04T03:50:03.749Z,101013.29
2023-02-04T03:52:30.412Z,101006.11
2023-02-04T03:54:57.046Z,101007.80
2023-02-04T03:57:23.779Z,101012.19
2023-02-04T03:59:50.463Z,101021.95
2023-02-04T04:02:17.060Z,101029.34
2023-02-04T04:04:43.672Z,101022.26
2023-02-04T04:07:10.308Z,101025.89
2023-02-04T04:09:36.950Z,101031.15
2023-02-04T04:12:04.630Z,101029.79
2023-02-04T04:14:31.421Z,101034.58
2023-02-04T04:16:58.165Z,101034.30
2023-02-04T04:19:24.936Z,101034.86
2023-02-04T04:21:51.722Z,101033.36
2023-02-04T04:24:18.412Z,101030.20
2023-02-04T04:26:45.048Z,101035.88
2023-02-04T04:29:11.769Z,101034.41
2023-02-04T04:31:38.500Z,101027.54
2023-02-04T04:34:05.335Z,101027.91
2023-02-04T04:36:32.059Z,101033.79
2023-02-04T04:38:59.781Z,101023.79
2023-02-04T04:41:26.543Z,101019.02
2023-02-04T04:43:53.606Z,101011.27
2023-02-04T04:46:20.301Z,101000.32
2023-02-04T04:48:46.971Z,100990.04
2023-02-04T04:51:13.715Z,100987.39
2023-02-04T04:53:40.413Z,100996.50
2023-02-04T04:56:07.089Z,100990.08
2023-02-04T04:58:33.750Z,100988.54
2023-02-04T05:01:00.535Z,100989.45
2023-02-04T05:03:27.291Z,100988.65
2023-02-04T05:05:53.899Z,100992.23
2023-02-04T05:08:21.089Z,100998.73
2023-02-04T05:10:48.193Z,101003.56
2023-02-04T05:13:15.203Z,101002.55
2023-02-04T05:15:42.599Z,101010.31
2023-02-04T05:18:09.469Z,101013.30
2023-02-04T05:20:36.071Z,101013.34
2023-02-04T05:23:05.546Z,101011.28
2023-02-04T05:25:32.850Z,101024.98
2023-02-04T05:27:59.535Z,101038.09
2023-02-04T05:30:26.165Z,101046.48
2023-02-04T05:32:52.964Z,101043.39
2023-02-04T05:35:20.434Z,101029.88
2023-02-04T05:37:47.177Z,101043.63
2023-02-04T05:40:14.113Z,101037.08
2023-02-04T05:42:41.954Z,101031.70
2023-02-04T05:45:18.693Z,101049.17
2023-02-04T05:47:45.295Z,101064.96
2023-02-04T05:50:11.900Z,101063.90
2023-02-04T05:52:38.918Z,101065.81
2023-02-04T05:55:05.936Z,101075.59
2023-02-04T05:57:32.673Z,101074.09
2023-02-04T05:59:59.278Z,101067.52
2023-02-04T06:02:25.927Z,101074.47
2023-02-04T06:04:52.545Z,101066.53
2023-02-04T06:07:19.168Z,101058.37
2023-02-04T06:09:45.792Z,101046.23
2023-02-04T06:12:12.429Z,101055.75
2023-02-04T06:14:39.089Z,101054.40
2023-02-04T06:17:05.757Z,101047.87
2023-02-04T06:19:36.500Z,101077.89
2023-02-04T06:22:03.179Z,101075.95
2023-02-04T06:24:29.975Z,101087.69
2023-02-04T06:26:56.618Z,101095.21
2023-02-04T06:29:23.291Z,101094.77
2023-02-04T06:31:50.061Z,101103.13
2023-02-04T06:34:16.913Z,101105.89
2023-02-04T06:36:43.583Z,101102.88
2023-02-04T06:39:10.193Z,101101.75
2023-02-04T06:41:36.865Z,101119.75
2023-02-04T06:44:03.557Z,101141.63
2023-02-04T06:46:30.252Z,101139.66
2023-02-04T06:48:56.967Z,101146.38
2023-02-04T06:51:23.620Z,101147.64
2023-02-04T06:53:50.286Z,101139.13
2023-02-04T06:56:16.933Z,101137.65
2023-02-04T06:58:43.519Z,101130.91
2023-02-04T07:01:10.150Z,101133.88
2023-02-04T07:03:36.778Z,101139.38
2023-02-04T07:06:03.411Z,101152.03
2023-02-04T07:08:29.999Z,101147.33
2023-02-04T07:10:56.664Z,101155.68
2023-02-04T07:13:23.393Z,101164.98
2023-02-04T07:15:50.040Z,101160.51
2023-02-04T07:18:16.844Z,101154.30
2023-02-04T07:20:43.921Z,101165.66
2023-02-04T07:23:10.531Z,101162.38
2023-02-04T07:25:38.936Z,101172.34
2023-02-04T07:28:06.134Z,101166.52
2023-02-04T07:30:33.959Z,101159.34
2023-02-04T07:33:00.955Z,101156.48
2023-02-04T07:35:27.602Z,101164.98
2023-02-04T07:37:54.222Z,101167.30
2023-02-04T07:40:23.729Z,101154.52
2023-02-04T07:42:50.296Z,101147.30
2023-02-04T07:45:17.454Z,101147.77
2023-02-04T07:47:44.080Z,101155.46
2023-02-04T07:50:11.208Z,101161.06
2023-02-04T07:52:37.806Z,101160.23
2023-02-04T07:55:05.421Z,101163.52
2023-02-04T07:57:32.163Z,101161.66
2023-02-04T07:59:59.258Z,101156.28
2023-02-04T08:02:26.068Z,101156.98
2023-02-04T08:04:53.257Z,101162.27
2023-02-04T08:07:19.874Z,101174.10
2023-02-04T08:09:47.225Z,101188.12
2023-02-04T08:12:13.846Z,101196.79
2023-02-04T08:14:40.508Z,101192.71
2023-02-04T08:17:07.225Z,101188.58
2023-02-04T08:19:33.797Z,101196.25
2023-02-04T08:22:00.452Z,101202.71
2023-02-04T08:24:27.216Z,101195.05
2023-02-04T08:26:53.795Z,101188.66
2023-02-04T08:29:20.382Z,101192.35
2023-02-04T08:31:47.920Z,101197.73
2023-02-04T08:34:14.684Z,101190.79
2023-02-04T08:36:41.386Z,101187.25
2023-02-04T08:39:08.105Z,101189.94
2023-02-04T08:41:34.824Z,101192.44
2023-02-04T08:44:01.694Z,101187.90
2023-02-04T08:46:28.393Z,101189.83
2023-02-04T08:48:55.069Z,101194.36
2023-02-04T08:51:21.720Z,101207.11
2023-02-04T08:53:48.456Z,101208.86
2023-02-04T08:56:20.597Z,101198.63
2023-02-04T08:58:48.317Z,101210.52
2023-02-04T09:01:15.275Z,101209.98
2023-02-04T09:03:41.985Z,101207.05
2023-02-04T09:06:08.905Z,101199.55
2023-02-04T09:08:35.528Z,101188.88
2023-02-04T09:11:02.202Z,101184.89
2023-02-04T09:13:28.972Z,101184.77
2023-02-04T09:15:55.643Z,101186.70
2023-02-04T09:18:22.927Z,101194.98
2023-02-04T09:20:50.072Z,101201.75
2023-02-04T09:23:16.805Z,101202.77
2023-02-04T09:25:45.073Z,101203.02
2023-02-04T09:28:13.574Z,101210.34
2023-02-04T09:30:41.695Z,101221.14
2023-02-04T09:33:10.607Z,101219.94
2023-02-04T09:35:37.856Z,101219.42
2023-02-04T09:38:05.158Z,101229.55
2023-02-04T09:40:36.525Z,101241.92
2023-02-04T09:43:05.615Z,101241.20
2023-02-04T09:45:36.640Z,101249.52
2023-02-04T09:48:05.376Z,101242.40
2023-02-04T09:50:32.986Z,101243.10
2023-02-04T09:53:06.671Z,101246.30
2023-02-04T09:55:37.950Z,101253.13
2023-02-04T09:58:26.597Z,101258.70
2023-02-04T10:01:01.431Z,101258.25
2023-02-04T10:03:28.193Z,101260.69
2023-02-04T10:05:54.846Z,101255.85
2023-02-04T10:08:28.103Z,101251.55
2023-02-04T10:10:57.259Z,101248.40
2023-02-04T10:13:32.560Z,101247.41
2023-02-04T10:16:00.331Z,101252.22
2023-02-04T10:18:33.168Z,101261.17
2023-02-04T10:21:21.661Z,101254.41
2023-02-04T10:23:53.950Z,101241.01
2023-02-04T10:26:22.153Z,101251.11
2023-02-04T10:28:49.885Z,101257.24
2023-02-04T10:31:38.051Z,101246.37
2023-02-04T10:34:12.065Z,101258.93
2023-02-04T10:36:40.504Z,101272.56
2023-02-04T10:39:16.046Z,101251.42
2023-02-04T10:41:52.929Z,101248.55
2023-02-04T10:44:31.257Z,101270.15
2023-02-04T10:47:17.014Z,101248.44
2023-02-04T10:50:12.839Z,101245.09
2023-02-04T10:52:46.014Z,101256.88
2023-02-04T10:55:19.088Z,101242.45
2023-02-04T10:57:48.555Z,101235.35
2023-02-04T11:00:21.661Z,101235.73
2023-02-04T11:02:49.757Z,101231.09
2023-02-04T11:05:20.082Z,101222.27
2023-02-04T11:07:48.614Z,101212.32
2023-02-04T11:10:21.379Z,101216.71
2023-02-04T11:13:02.822Z,101217.11
2023-02-04T11:15:40.778Z,101217.21
2023-02-04T11:18:10.339Z,101210.60
2023-02-04T11:20:40.018Z,101202.30
2023-02-04T11:23:25.436Z,101204.73
2023-02-04T11:26:08.253Z,101210.88
2023-02-04T11:28:40.808Z,101203.95
2023-02-04T11:31:35.244Z,101203.59
2023-02-04T11:34:21.724Z,101207.87
2023-02-04T11:37:12.150Z,101211.23
2023-02-04T11:39:44.907Z,101210.83
2023-02-04T11:42:41.838Z,101208.77
2023-02-04T11:45:14.291Z,101211.92
2023-02-04T11:47:41.759Z,101212.05
2023-02-04T11:50:23.658Z,101211.27
2023-02-04T11:52:50.640Z,101208.11
2023-02-04T11:55:20.051Z,101205.86
2023-02-04T11:57:52.580Z,101208.17
2023-02-04T12:00:25.997Z,101203.75
2023-02-04T12:03:01.764Z,101206.56
2023-02-04T12:05:42.473Z,101209.97
2023-02-04T12:08:12.202Z,101201.62
2023-02-04T12:10:39.197Z,101189.27
2023-02-04T12:13:16.433Z,101202.80
2023-02-04T12:15:55.659Z,101211.02
2023-02-04T12:18:22.518Z,101191.92
2023-02-04T12:20:49.231Z,101197.98
2023-02-04T12:23:15.794Z,101191.09
2023-02-04T12:25:42.575Z,101185.15
2023-02-04T12:28:09.293Z,101192.91
2023-02-04T12:30:36.415Z,101184.15
2023-02-04T12:33:03.061Z,101178.52
2023-02-04T12:35:29.878Z,101186.09
2023-02-04T12:37:56.767Z,101185.20
2023-02-04T12:40:23.379Z,101179.21
2023-02-04T12:42:50.230Z,101180.30
2023-02-04T12:45:17.888Z,101192.59
2023-02-04T12:47:44.754Z,101193.14
2023-02-04T12:50:14.714Z,101187.64
2023-02-04T12:52:41.340Z,101188.20
2023-02-04T12:55:09.464Z,101189.96
2023-02-04T12:57:36.194Z,101185.89
2023-02-04T13:00:04.049Z,101179.98
2023-02-04T13:02:30.707Z,101176.17
2023-02-04T13:04:57.418Z,101173.53
2023-02-04T13:07:24.482Z,101173.11
2023-02-04T13:09:51.186Z,101171.44
2023-02-04T13:12:17.934Z,101173.79
2023-02-04T13:14:44.817Z,101171.84
2023-02-04T13:17:11.881Z,101170.35
2023-02-04T13:19:38.540Z,101172.69
2023-02-04T13:22:05.588Z,101170.25
2023-02-04T13:24:32.470Z,101166.52
2023-02-04T13:26:59.234Z,101161.67
2023-02-04T13:29:26.168Z,101161.06
2023-02-04T13:31:52.997Z,101161.98
2023-02-04T13:34:19.850Z,101167.88
2023-02-04T13:36:46.561Z,101172.10
2023-02-04T13:39:13.143Z,101171.08
2023-02-04T13:41:39.782Z,101170.24
2023-02-04T13:44:06.596Z,101169.17
2023-02-04T13:46:33.849Z,101168.55
2023-02-04T13:49:00.565Z,101173.02
2023-02-04T13:51:27.161Z,101179.15
2023-02-04T13:53:53.808Z,101183.56
2023-02-04T13:56:20.432Z,101183.87
2023-02-04T13:58:47.056Z,101183.70
2023-02-04T14:01:14.492Z,101189.10
2023-02-04T14:03:42.802Z,101193.94
2023-02-04T14:06:09.852Z,101192.11
2023-02-04T14:08:36.790Z,101188.06
2023-02-04T14:11:03.750Z,101185.24
2023-02-04T14:13:30.975Z,101187.81
2023-02-04T14:15:57.627Z,101187.98
2023-02-04T14:18:24.360Z,101191.90
2023-02-04T14:20:51.043Z,101195.10
2023-02-04T14:23:17.628Z,101200.52
2023-02-04T14:25:44.507Z,101200.20
2023-02-04T14:28:11.231Z,101199.23
2023-02-04T14:30:38.087Z,101209.70
2023-02-04T14:33:04.702Z,101228.20
2023-02-04T14:35:32.224Z,101245.93
2023-02-04T14:37:58.882Z,101253.08
2023-02-04T14:40:25.588Z,101257.05
2023-02-04T14:42:52.675Z,101260.66
2023-02-04T14:45:19.437Z,101261.85
2023-02-04T14:47:46.437Z,101265.91
2023-02-04T14:50:17.790Z,101272.30
2023-02-04T14:52:44.508Z,101284.42
2023-02-04T14:55:13.014Z,101290.02
2023-02-04T14:57:39.837Z,101301.59
2023-02-04T15:00:07.128Z,101311.46
2023-02-04T15:02:33.806Z,101314.21
2023-02-04T15:05:00.455Z,101319.98
2023-02-04T15:07:27.070Z,101321.17
2023-02-04T15:09:53.826Z,101320.30
2023-02-04T15:12:20.756Z,101330.45
2023-02-04T15:14:47.397Z,101333.23
2023-02-04T15:17:14.110Z,101336.77
2023-02-04T15:19:40.770Z,101345.90
2023-02-04T15:22:07.650Z,101354.59
2023-02-04T15:24:34.488Z,101361.59
2023-02-04T15:27:01.145Z,101361.09
2023-02-04T15:29:27.805Z,101353.89
2023-02-04T15:31:54.605Z,101356.09
2023-02-04T15:34:21.211Z,101368.36
2023-02-04T15:36:47.879Z,101380.45
2023-02-04T15:39:14.600Z,101381.94
2023-02-04T15:41:41.265Z,101379.15
2023-02-04T15:44:08.014Z,101390.09
2023-02-04T15:46:37.419Z,101399.27
2023-02-04T15:49:04.496Z,101406.55
2023-02-04T15:51:31.221Z,101411.88
2023-02-04T15:53:57.970Z,101409.88
2023-02-04T15:56:24.621Z,101416.11
2023-02-04T15:58:51.308Z,101426.96
2023-02-04T16:01:18.979Z,101433.02
2023-02-04T16:03:47.272Z,101438.95
2023-02-04T16:06:13.926Z,101442.30
2023-02-04T16:08:40.566Z,101451.35
2023-02-04T16:11:07.172Z,101454.64
2023-02-04T16:13:33.879Z,101452.87
2023-02-04T16:16:00.534Z,101459.62
2023-02-04T16:18:27.200Z,101467.48
2023-02-04T16:20:53.971Z,101472.75
2023-02-04T16:23:20.565Z,101481.14
2023-02-04T16:25:47.205Z,101486.58
2023-02-04T16:28:13.886Z,101488.37
2023-02-04T16:30:40.637Z,101499.11
2023-02-04T16:33:07.316Z,101505.70
2023-02-04T16:36:04.398Z,101506.97
2023-02-04T16:38:31.639Z,101502.48
2023-02-04T16:40:58.636Z,101512.55
2023-02-04T16:43:25.300Z,101521.77
2023-02-04T16:45:52.350Z,101530.75
2023-02-04T16:48:19.281Z,101540.84
2023-02-04T16:50:45.958Z,101545.58
2023-02-04T16:53:16.079Z,101549.89
2023-02-04T16:55:47.981Z,101561.24
2023-02-04T16:58:15.366Z,101579.76
2023-02-04T17:00:44.103Z,101590.89
2023-02-04T17:03:14.435Z,101591.48
2023-02-04T17:05:41.933Z,101598.39
2023-02-04T17:08:08.949Z,101609.05
2023-02-04T17:10:54.716Z,101619.34
2023-02-04T17:13:21.417Z,101630.18
2023-02-04T17:15:48.298Z,101636.92
2023-02-04T17:18:14.913Z,101640.40
2023-02-04T17:20:41.552Z,101653.38
2023-02-04T17:23:08.272Z,101666.23
2023-02-04T17:25:35.174Z,101667.39
2023-02-04T17:28:02.181Z,101673.65
2023-02-04T17:30:29.327Z,101691.91
2023-02-04T17:32:55.928Z,101697.30
2023-02-04T17:35:22.578Z,101699.88
2023-02-04T17:37:49.347Z,101712.44
2023-02-04T17:40:16.128Z,101724.59
2023-02-04T17:42:42.858Z,101740.11
2023-02-04T17:45:11.131Z,101747.90
2023-02-04T17:47:40.997Z,101760.63
2023-02-04T17:50:10.175Z,101762.39
2023-02-04T17:52:37.969Z,101769.48
2023-02-04T17:55:24.324Z,101774.98
2023-02-04T17:57:51.117Z,101775.04
2023-02-04T18:00:21.140Z,101777.06
2023-02-04T18:02:50.287Z,101783.54
2023-02-04T18:05:20.224Z,101784.69
2023-02-04T18:07:52.353Z,101789.54
2023-02-04T18:10:29.321Z,101797.20
2023-02-04T18:12:57.004Z,101809.81
2023-02-04T18:15:26.819Z,101814.95
2023-02-04T18:18:06.508Z,101829.14
2023-02-04T18:20:33.115Z,101839.56
2023-02-04T18:23:02.735Z,101842.91
2023-02-04T18:25:29.840Z,101844.73
2023-02-04T18:28:02.970Z,101848.64
2023-02-04T18:30:29.741Z,101843.25
2023-02-04T18:32:56.401Z,101842.77
2023-02-04T18:35:22.934Z,101846.98
2023-02-04T18:37:52.396Z,101854.58
2023-02-04T18:40:26.687Z,101860.13
2023-02-04T18:43:23.060Z,101865.27
2023-02-04T18:45:50.074Z,101880.01
2023-02-04T18:48:19.697Z,101880.33
2023-02-04T18:50:48.719Z,101886.38
2023-02-04T18:53:15.418Z,101888.93
2023-02-04T18:55:47.573Z,101884.40
2023-02-04T18:58:17.250Z,101888.11
2023-02-04T19:00:49.161Z,101886.82
2023-02-04T19:03:25.914Z,101891.70
2023-02-04T19:05:54.382Z,101894.45
2023-02-04T19:08:24.727Z,101903.78
2023-02-04T19:10:53.589Z,101912.63
2023-02-04T19:13:26.083Z,101920.82
2023-02-04T19:15:59.865Z,101923.67
2023-02-04T19:18:44.659Z,101925.08
2023-02-04T19:21:23.457Z,101924.90
2023-02-04T19:23:52.993Z,101926.84
2023-02-04T19:26:29.586Z,101927.45
2023-02-04T19:28:56.809Z,101931.90
2023-02-04T19:31:32.624Z,101934.38
2023-02-04T19:34:12.604Z,101939.20
2023-02-04T19:36:39.900Z,101944.02
2023-02-04T19:39:35.493Z,101946.25
2023-02-04T19:42:19.055Z,101946.38
2023-02-04T19:44:46.675Z,101952.27
2023-02-04T19:47:25.625Z,101948.02
2023-02-04T19:50:01.563Z,101954.14
2023-02-04T19:52:36.027Z,101957.77
2023-02-04T19:55:31.420Z,101958.67
2023-02-04T19:58:11.588Z,101967.95
2023-02-04T20:00:46.611Z,101974.23
2023-02-04T20:03:42.509Z,101980.18
2023-02-04T20:06:30.856Z,101983.75
2023-02-04T20:09:06.568Z,101990.24
2023-02-04T20:11:33.183Z,101995.96
2023-02-04T20:14:15.133Z,102001.66
2023-02-04T20:16:46.891Z,102006.73
2023-02-04T20:19:23.119Z,102013.79
2023-02-04T20:22:22.164Z,102014.55
2023-02-04T20:24:57.869Z,102017.36
2023-02-04T20:27:41.273Z,102025.08
2023-02-04T20:30:08.590Z,102028.11
2023-02-04T20:32:40.739Z,102035.71
2023-02-04T20:35:10.103Z,102032.05
2023-02-04T20:37:36.849Z,102032.74
2023-02-04T20:40:21.971Z,102042.06
2023-02-04T20:43:19.841Z,102047.88
2023-02-04T20:45:55.771Z,102054.12
2023-02-04T20:48:32.806Z,102058.03
2023-02-04T20:51:03.181Z,102057.17
2023-02-04T20:53:50.272Z,102058.73
2023-02-04T20:56:29.957Z,102067.31
2023-02-04T20:59:18.012Z,102074.14
2023-02-04T21:01:46.998Z,102079.95
2023-02-04T21:04:23.041Z,102081.95
2023-02-04T21:06:51.847Z,102077.04
2023-02-04T21:09:24.301Z,102080.04
2023-02-04T21:11:52.522Z,102086.63
2023-02-04T21:14:19.202Z,102089.45
2023-02-04T21:16:46.318Z,102096.88
2023-02-04T21:19:13.470Z,102105.36
2023-02-04T21:21:40.410Z,102107.50
2023-02-04T21:24:08.027Z,102117.16
2023-02-04T21:26:34.909Z,102119.06
2023-02-04T21:29:01.974Z,102122.21
2023-02-04T21:31:28.739Z,102128.59
2023-02-04T21:33:57.083Z,102136.17
2023-02-04T21:36:27.821Z,102138.20
2023-02-04T21:38:55.607Z,102142.67
2023-02-04T21:41:23.053Z,102142.86
2023-02-04T21:43:50.468Z,102146.02
2023-02-04T21:46:17.736Z,102148.09
2023-02-04T21:48:44.839Z,102149.58
2023-02-04T21:51:13.296Z,102154.86
2023-02-04T21:53:40.353Z,102154.33
2023-02-04T21:56:08.859Z,102157.39
2023-02-04T21:58:36.301Z,102154.75
2023-02-04T22:01:03.026Z,102160.70
2023-02-04T22:03:29.723Z,102162.05
2023-02-04T22:05:56.405Z,102160.84
2023-02-04T22:08:23.114Z,102165.28
2023-02-04T22:10:49.732Z,102176.27
2023-02-04T22:13:16.411Z,102183.08
2023-02-04T22:15:43.017Z,102185.57
2023-02-04T22:18:09.733Z,102187.56
2023-02-04T22:20:38.605Z,102186.98
2023-02-04T22:23:06.118Z,102190.28
2023-02-04T22:25:33.225Z,102194.39
2023-02-04T22:28:00.174Z,102199.39
2023-02-04T22:30:26.879Z,102204.78
2023-02-04T22:32:53.574Z,102211.21
2023-02-04T22:35:20.171Z,102213.79
2023-02-04T22:37:46.843Z,102221.58
2023-02-04T22:40:14.064Z,102219.20
2023-02-04T22:42:41.071Z,102221.81
2023-02-04T22:45:10.340Z,102221.53
2023-02-04T22:47:37.113Z,102226.29
2023-02-04T22:50:03.911Z,102227.52
2023-02-04T22:52:30.621Z,102232.85
2023-02-04T22:54:57.257Z,102233.95
2023-02-04T22:57:23.858Z,102233.98
2023-02-04T22:59:50.481Z,102240.45
2023-02-04T23:02:17.154Z,102247.97
2023-02-04T23:04:44.192Z,102249.79
2023-02-04T23:07:12.266Z,102253.30
2023-02-04T23:09:39.783Z,102254.92
2023-02-04T23:12:12.967Z,102262.39
2023-02-04T23:14:41.787Z,102265.01
2023-02-04T23:17:09.668Z,102265.20
2023-02-04T23:19:36.613Z,102263.45
2023-02-04T23:22:03.729Z,102263.83
2023-02-04T23:24:31.182Z,102266.70
2023-02-04T23:27:00.303Z,102272.45
2023-02-04T23:29:29.529Z,102273.55
2023-02-04T23:31:56.490Z,102278.76
2023-02-04T23:34:23.251Z,102277.02
2023-02-04T23:36:54.117Z,102276.20
2023-02-04T23:39:21.452Z,102279.24
2023-02-04T23:41:49.414Z,102276.29
2023-02-04T23:44:16.537Z,102280.52
2023-02-04T23:46:43.575Z,102283.14
2023-02-04T23:49:10.342Z,102286.89
2023-02-04T23:51:37.148Z,102288.69
2023-02-04T23:54:04.116Z,102287.84
2023-02-04T23:56:30.847Z,102285.02
2023-02-04T23:58:57.585Z,102289.59
